sensor_id;sensor_type;location;lat;lon;timestamp;temperature;humidity
73121;DHT22;61307;49.628;-1.624;2024-01-30T00:01:08;22.60;42.50
73121;DHT22;61307;49.628;-1.624;2024-01-30T00:03:35;22.70;42.60
73121;DHT22;61307;49.628;-1.624;2024-01-30T00:06:03;22.60;42.40
73121;DHT22;61307;49.628;-1.624;2024-01-30T00:08:31;22.60;42.40
73121;DHT22;61307;49.628;-1.624;2024-01-30T00:10:58;22.70;42.40
73121;DHT22;61307;49.628;-1.624;2024-01-30T00:13:25;22.70;42.40
73121;DHT22;61307;49.628;-1.624;2024-01-30T00:15:52;22.70;42.40
73121;DHT22;61307;49.628;-1.624;2024-01-30T00:18:19;22.70;42.30
73121;DHT22;61307;49.628;-1.624;2024-01-30T00:20:47;22.70;42.30
73121;DHT22;61307;49.628;-1.624;2024-01-30T00:23:14;22.70;42.20
73121;DHT22;61307;49.628;-1.624;2024-01-30T00:25:42;22.80;42.30
73121;DHT22;61307;49.628;-1.624;2024-01-30T00:28:08;22.80;42.20
73121;DHT22;61307;49.628;-1.624;2024-01-30T00:30:35;22.80;42.80
73121;DHT22;61307;49.628;-1.624;2024-01-30T00:33:03;22.80;42.10
73121;DHT22;61307;49.628;-1.624;2024-01-30T00:35:29;22.80;42.10
73121;DHT22;61307;49.628;-1.624;2024-01-30T00:37:56;22.80;42.10
73121;DHT22;61307;49.628;-1.624;2024-01-30T00:40:23;22.70;42.70
73121;DHT22;61307;49.628;-1.624;2024-01-30T00:42:52;22.70;42.10
73121;DHT22;61307;49.628;-1.624;2024-01-30T00:45:18;22.60;42.10
73121;DHT22;61307;49.628;-1.624;2024-01-30T00:47:45;22.60;42.10
73121;DHT22;61307;49.628;-1.624;2024-01-30T00:50:12;22.60;42.10
73121;DHT22;61307;49.628;-1.624;2024-01-30T00:52:40;22.60;42.10
73121;DHT22;61307;49.628;-1.624;2024-01-30T00:55:07;22.60;42.10
73121;DHT22;61307;49.628;-1.624;2024-01-30T00:57:34;22.50;42.10
73121;DHT22;61307;49.628;-1.624;2024-01-30T01:00:03;22.50;42.10
73121;DHT22;61307;49.628;-1.624;2024-01-30T01:02:32;22.50;42.10
73121;DHT22;61307;49.628;-1.624;2024-01-30T01:04:58;22.50;42.10
73121;DHT22;61307;49.628;-1.624;2024-01-30T01:07:25;22.60;42.10
73121;DHT22;61307;49.628;-1.624;2024-01-30T01:09:52;22.60;42.10
73121;DHT22;61307;49.628;-1.624;2024-01-30T01:12:19;22.60;42.00
73121;DHT22;61307;49.628;-1.624;2024-01-30T01:14:46;22.60;41.90
73121;DHT22;61307;49.628;-1.624;2024-01-30T01:17:14;22.60;41.90
73121;DHT22;61307;49.628;-1.624;2024-01-30T01:19:41;22.60;42.60
73121;DHT22;61307;49.628;-1.624;2024-01-30T01:22:08;22.60;41.90
73121;DHT22;61307;49.628;-1.624;2024-01-30T01:24:36;22.70;42.00
73121;DHT22;61307;49.628;-1.624;2024-01-30T01:27:03;22.70;41.90
73121;DHT22;61307;49.628;-1.624;2024-01-30T01:29:30;22.70;41.80
73121;DHT22;61307;49.628;-1.624;2024-01-30T01:31:57;22.70;41.70
73121;DHT22;61307;49.628;-1.624;2024-01-30T01:34:26;22.70;41.60
73121;DHT22;61307;49.628;-1.624;2024-01-30T01:36:53;22.70;41.50
73121;DHT22;61307;49.628;-1.624;2024-01-30T01:39:21;22.80;41.50
73121;DHT22;61307;49.628;-1.624;2024-01-30T01:41:48;22.80;41.50
73121;DHT22;61307;49.628;-1.624;2024-01-30T01:44:15;22.70;41.40
73121;DHT22;61307;49.628;-1.624;2024-01-30T01:46:42;22.80;41.50
73121;DHT22;61307;49.628;-1.624;2024-01-30T01:49:09;22.70;41.40
73121;DHT22;61307;49.628;-1.624;2024-01-30T01:51:37;22.70;41.50
73121;DHT22;61307;49.628;-1.624;2024-01-30T01:54:07;22.60;42.10
73121;DHT22;61307;49.628;-1.624;2024-01-30T01:56:34;22.60;41.40
73121;DHT22;61307;49.628;-1.624;2024-01-30T01:59:05;22.60;41.50
73121;DHT22;61307;49.628;-1.624;2024-01-30T02:01:33;22.60;41.50
73121;DHT22;61307;49.628;-1.624;2024-01-30T02:04:00;22.50;41.40
73121;DHT22;61307;49.628;-1.624;2024-01-30T02:06:27;22.50;41.40
73121;DHT22;61307;49.628;-1.624;2024-01-30T02:08:56;22.50;42.10
73121;DHT22;61307;49.628;-1.624;2024-01-30T02:11:23;22.50;41.40
73121;DHT22;61307;49.628;-1.624;2024-01-30T02:13:50;22.50;41.30
73121;DHT22;61307;49.628;-1.624;2024-01-30T02:16:17;22.60;41.30
73121;DHT22;61307;49.628;-1.624;2024-01-30T02:18:44;22.60;41.30
73121;DHT22;61307;49.628;-1.624;2024-01-30T02:21:15;22.60;41.30
73121;DHT22;61307;49.628;-1.624;2024-01-30T02:23:43;22.60;41.30
73121;DHT22;61307;49.628;-1.624;2024-01-30T02:26:10;22.60;41.30
73121;DHT22;61307;49.628;-1.624;2024-01-30T02:28:37;22.60;41.20
73121;DHT22;61307;49.628;-1.624;2024-01-30T02:31:04;22.60;41.20
73121;DHT22;61307;49.628;-1.624;2024-01-30T02:33:31;22.60;41.20
73121;DHT22;61307;49.628;-1.624;2024-01-30T02:35:58;22.60;41.10
73121;DHT22;61307;49.628;-1.624;2024-01-30T02:38:27;22.60;41.00
73121;DHT22;61307;49.628;-1.624;2024-01-30T02:40:54;22.60;41.00
73121;DHT22;61307;49.628;-1.624;2024-01-30T02:43:22;22.60;41.00
73121;DHT22;61307;49.628;-1.624;2024-01-30T02:45:49;22.70;41.60
73121;DHT22;61307;49.628;-1.624;2024-01-30T02:48:16;22.70;40.90
73121;DHT22;61307;49.628;-1.624;2024-01-30T02:50:43;22.70;40.90
73121;DHT22;61307;49.628;-1.624;2024-01-30T02:53:11;22.70;40.90
73121;DHT22;61307;49.628;-1.624;2024-01-30T02:55:39;22.70;40.90
73121;DHT22;61307;49.628;-1.624;2024-01-30T02:58:06;22.60;40.90
73121;DHT22;61307;49.628;-1.624;2024-01-30T03:00:33;22.60;41.00
73121;DHT22;61307;49.628;-1.624;2024-01-30T03:03:00;22.60;41.00
73121;DHT22;61307;49.628;-1.624;2024-01-30T03:05:27;22.50;41.60
73121;DHT22;61307;49.628;-1.624;2024-01-30T03:07:54;22.50;41.00
73121;DHT22;61307;49.628;-1.624;2024-01-30T03:10:21;22.50;41.00
73121;DHT22;61307;49.628;-1.624;2024-01-30T03:12:49;22.50;41.00
73121;DHT22;61307;49.628;-1.624;2024-01-30T03:15:16;22.50;41.00
73121;DHT22;61307;49.628;-1.624;2024-01-30T03:17:43;22.50;41.10
73121;DHT22;61307;49.628;-1.624;2024-01-30T03:20:10;22.50;41.00
73121;DHT22;61307;49.628;-1.624;2024-01-30T03:22:37;22.50;41.00
73121;DHT22;61307;49.628;-1.624;2024-01-30T03:25:05;22.60;41.00
73121;DHT22;61307;49.628;-1.624;2024-01-30T03:27:31;22.60;41.00
73121;DHT22;61307;49.628;-1.624;2024-01-30T03:30:00;22.60;41.00
73121;DHT22;61307;49.628;-1.624;2024-01-30T03:32:27;22.60;41.00
73121;DHT22;61307;49.628;-1.624;2024-01-30T03:34:54;22.60;40.90
73121;DHT22;61307;49.628;-1.624;2024-01-30T03:37:21;22.60;40.90
73121;DHT22;61307;49.628;-1.624;2024-01-30T03:39:47;22.60;40.80
73121;DHT22;61307;49.628;-1.624;2024-01-30T03:42:14;22.60;40.80
73121;DHT22;61307;49.628;-1.624;2024-01-30T03:44:41;22.70;40.80
73121;DHT22;61307;49.628;-1.624;2024-01-30T03:47:10;22.60;40.80
73121;DHT22;61307;49.628;-1.624;2024-01-30T03:49:37;22.60;40.70
73121;DHT22;61307;49.628;-1.624;2024-01-30T03:52:04;22.70;40.70
73121;DHT22;61307;49.628;-1.624;2024-01-30T03:54:31;22.70;40.60
73121;DHT22;61307;49.628;-1.624;2024-01-30T03:56:58;22.70;40.60
73121;DHT22;61307;49.628;-1.624;2024-01-30T03:59:25;22.80;40.60
73121;DHT22;61307;49.628;-1.624;2024-01-30T04:01:52;22.70;40.60
73121;DHT22;61307;49.628;-1.624;2024-01-30T04:04:20;22.70;40.60
73121;DHT22;61307;49.628;-1.624;2024-01-30T04:06:47;22.60;40.50
73121;DHT22;61307;49.628;-1.624;2024-01-30T04:09:13;22.60;40.60
73121;DHT22;61307;49.628;-1.624;2024-01-30T04:11:40;22.60;40.70
73121;DHT22;61307;49.628;-1.624;2024-01-30T04:14:08;22.50;40.70
73121;DHT22;61307;49.628;-1.624;2024-01-30T04:16:35;22.50;40.70
73121;DHT22;61307;49.628;-1.624;2024-01-30T04:19:02;22.50;40.70
73121;DHT22;61307;49.628;-1.624;2024-01-30T04:21:30;22.50;40.70
73121;DHT22;61307;49.628;-1.624;2024-01-30T04:23:58;22.50;40.80
73121;DHT22;61307;49.628;-1.624;2024-01-30T04:26:24;22.50;40.70
73121;DHT22;61307;49.628;-1.624;2024-01-30T04:28:51;22.60;40.70
73121;DHT22;61307;49.628;-1.624;2024-01-30T04:31:18;22.60;40.70
73121;DHT22;61307;49.628;-1.624;2024-01-30T04:33:45;22.50;40.60
73121;DHT22;61307;49.628;-1.624;2024-01-30T04:36:12;22.60;40.60
73121;DHT22;61307;49.628;-1.624;2024-01-30T04:38:40;22.60;40.60
73121;DHT22;61307;49.628;-1.624;2024-01-30T04:41:07;22.60;40.60
73121;DHT22;61307;49.628;-1.624;2024-01-30T04:43:34;22.60;40.50
73121;DHT22;61307;49.628;-1.624;2024-01-30T04:46:01;22.60;40.50
73121;DHT22;61307;49.628;-1.624;2024-01-30T04:48:28;22.60;40.50
73121;DHT22;61307;49.628;-1.624;2024-01-30T04:50:55;22.60;40.50
73121;DHT22;61307;49.628;-1.624;2024-01-30T04:53:22;22.60;40.40
73121;DHT22;61307;49.628;-1.624;2024-01-30T04:55:50;22.70;40.40
73121;DHT22;61307;49.628;-1.624;2024-01-30T04:58:17;22.70;40.40
73121;DHT22;61307;49.628;-1.624;2024-01-30T05:00:44;22.70;40.30
73121;DHT22;61307;49.628;-1.624;2024-01-30T05:03:11;22.70;40.90
73121;DHT22;61307;49.628;-1.624;2024-01-30T05:05:38;22.70;40.20
73121;DHT22;61307;49.628;-1.624;2024-01-30T05:08:05;22.70;40.20
73121;DHT22;61307;49.628;-1.624;2024-01-30T05:10:32;22.60;40.20
73121;DHT22;61307;49.628;-1.624;2024-01-30T05:13:01;22.60;40.20
73121;DHT22;61307;49.628;-1.624;2024-01-30T05:15:27;22.50;40.20
73121;DHT22;61307;49.628;-1.624;2024-01-30T05:17:54;22.50;40.30
73121;DHT22;61307;49.628;-1.624;2024-01-30T05:20:21;22.50;40.30
73121;DHT22;61307;49.628;-1.624;2024-01-30T05:22:48;22.50;40.30
73121;DHT22;61307;49.628;-1.624;2024-01-30T05:25:15;22.50;40.40
73121;DHT22;61307;49.628;-1.624;2024-01-30T05:27:42;22.50;40.40
73121;DHT22;61307;49.628;-1.624;2024-01-30T05:30:11;22.50;40.40
73121;DHT22;61307;49.628;-1.624;2024-01-30T05:32:38;22.50;40.30
73121;DHT22;61307;49.628;-1.624;2024-01-30T05:35:05;22.50;40.30
73121;DHT22;61307;49.628;-1.624;2024-01-30T05:37:33;22.50;40.20
73121;DHT22;61307;49.628;-1.624;2024-01-30T05:40:00;22.60;40.30
73121;DHT22;61307;49.628;-1.624;2024-01-30T05:42:27;22.50;40.20
73121;DHT22;61307;49.628;-1.624;2024-01-30T05:44:54;22.60;40.20
73121;DHT22;61307;49.628;-1.624;2024-01-30T05:47:22;22.60;40.20
73121;DHT22;61307;49.628;-1.624;2024-01-30T05:49:49;22.60;40.20
73121;DHT22;61307;49.628;-1.624;2024-01-30T05:52:15;22.60;40.20
73121;DHT22;61307;49.628;-1.624;2024-01-30T05:54:44;22.60;40.10
73121;DHT22;61307;49.628;-1.624;2024-01-30T05:57:11;22.60;40.00
73121;DHT22;61307;49.628;-1.624;2024-01-30T05:59:37;22.60;40.00
73121;DHT22;61307;49.628;-1.624;2024-01-30T06:02:04;22.60;40.00
73121;DHT22;61307;49.628;-1.624;2024-01-30T06:04:32;22.60;39.80
73121;DHT22;61307;49.628;-1.624;2024-01-30T06:06:59;22.60;39.80
73121;DHT22;61307;49.628;-1.624;2024-01-30T06:09:27;22.70;39.80
73121;DHT22;61307;49.628;-1.624;2024-01-30T06:11:55;22.70;39.70
73121;DHT22;61307;49.628;-1.624;2024-01-30T06:14:22;22.60;39.70
73121;DHT22;61307;49.628;-1.624;2024-01-30T06:16:49;22.60;39.70
73121;DHT22;61307;49.628;-1.624;2024-01-30T06:19:16;22.60;39.80
73121;DHT22;61307;49.628;-1.624;2024-01-30T06:21:44;22.60;39.80
73121;DHT22;61307;49.628;-1.624;2024-01-30T06:24:11;22.50;39.80
73121;DHT22;61307;49.628;-1.624;2024-01-30T06:26:38;22.50;39.80
73121;DHT22;61307;49.628;-1.624;2024-01-30T06:29:05;22.50;39.90
73121;DHT22;61307;49.628;-1.624;2024-01-30T06:31:33;22.40;39.80
73121;DHT22;61307;49.628;-1.624;2024-01-30T06:34:00;22.40;39.80
73121;DHT22;61307;49.628;-1.624;2024-01-30T06:36:26;22.40;39.80
73121;DHT22;61307;49.628;-1.624;2024-01-30T06:38:54;22.50;39.80
73121;DHT22;61307;49.628;-1.624;2024-01-30T06:41:21;22.50;39.80
73121;DHT22;61307;49.628;-1.624;2024-01-30T06:43:49;22.50;39.80
73121;DHT22;61307;49.628;-1.624;2024-01-30T06:46:16;22.50;39.70
73121;DHT22;61307;49.628;-1.624;2024-01-30T06:48:43;22.50;39.70
73121;DHT22;61307;49.628;-1.624;2024-01-30T06:51:10;22.60;39.70
73121;DHT22;61307;49.628;-1.624;2024-01-30T06:53:37;22.50;39.60
73121;DHT22;61307;49.628;-1.624;2024-01-30T06:56:06;22.60;39.60
73121;DHT22;61307;49.628;-1.624;2024-01-30T06:58:33;22.60;39.50
73121;DHT22;61307;49.628;-1.624;2024-01-30T07:01:00;22.60;39.40
73121;DHT22;61307;49.628;-1.624;2024-01-30T07:03:27;22.60;39.40
73121;DHT22;61307;49.628;-1.624;2024-01-30T07:05:54;22.60;39.40
73121;DHT22;61307;49.628;-1.624;2024-01-30T07:08:21;22.60;39.40
73121;DHT22;61307;49.628;-1.624;2024-01-30T07:10:48;22.60;39.20
73121;DHT22;61307;49.628;-1.624;2024-01-30T07:13:17;22.60;39.30
73121;DHT22;61307;49.628;-1.624;2024-01-30T07:15:44;22.60;39.30
73121;DHT22;61307;49.628;-1.624;2024-01-30T07:18:10;22.60;39.30
73121;DHT22;61307;49.628;-1.624;2024-01-30T07:20:40;22.60;39.40
73121;DHT22;61307;49.628;-1.624;2024-01-30T07:23:11;22.50;39.30
73121;DHT22;61307;49.628;-1.624;2024-01-30T07:25:39;22.50;39.40
73121;DHT22;61307;49.628;-1.624;2024-01-30T07:28:07;22.40;39.40
73121;DHT22;61307;49.628;-1.624;2024-01-30T07:30:36;22.40;39.40
73121;DHT22;61307;49.628;-1.624;2024-01-30T07:33:03;22.40;39.50
73121;DHT22;61307;49.628;-1.624;2024-01-30T07:35:30;22.40;39.50
73121;DHT22;61307;49.628;-1.624;2024-01-30T07:37:57;22.30;39.40
73121;DHT22;61307;49.628;-1.624;2024-01-30T07:40:24;22.30;39.50
73121;DHT22;61307;49.628;-1.624;2024-01-30T07:42:53;22.30;39.60
73121;DHT22;61307;49.628;-1.624;2024-01-30T07:45:20;22.30;39.50
73121;DHT22;61307;49.628;-1.624;2024-01-30T07:47:51;22.30;39.50
73121;DHT22;61307;49.628;-1.624;2024-01-30T07:50:18;22.30;39.50
73121;DHT22;61307;49.628;-1.624;2024-01-30T07:52:45;22.40;39.60
73121;DHT22;61307;49.628;-1.624;2024-01-30T07:55:53;22.30;39.50
73121;DHT22;61307;49.628;-1.624;2024-01-30T07:58:20;22.30;39.50
73121;DHT22;61307;49.628;-1.624;2024-01-30T08:00:47;22.30;39.60
73121;DHT22;61307;49.628;-1.624;2024-01-30T08:03:15;22.30;39.60
73121;DHT22;61307;49.628;-1.624;2024-01-30T08:05:43;22.30;39.60
73121;DHT22;61307;49.628;-1.624;2024-01-30T08:08:10;22.40;39.70
73121;DHT22;61307;49.628;-1.624;2024-01-30T08:10:37;22.40;39.80
73121;DHT22;61307;49.628;-1.624;2024-01-30T08:13:04;22.40;39.90
73121;DHT22;61307;49.628;-1.624;2024-01-30T08:15:31;22.40;39.80
73121;DHT22;61307;49.628;-1.624;2024-01-30T08:17:58;22.40;39.70
73121;DHT22;61307;49.628;-1.624;2024-01-30T08:20:26;22.40;39.60
73121;DHT22;61307;49.628;-1.624;2024-01-30T08:22:53;22.40;39.70
73121;DHT22;61307;49.628;-1.624;2024-01-30T08:25:20;22.40;39.70
73121;DHT22;61307;49.628;-1.624;2024-01-30T08:27:47;22.40;39.70
73121;DHT22;61307;49.628;-1.624;2024-01-30T08:30:14;22.40;39.70
73121;DHT22;61307;49.628;-1.624;2024-01-30T08:32:41;22.40;39.80
73121;DHT22;61307;49.628;-1.624;2024-01-30T08:35:08;22.40;39.90
73121;DHT22;61307;49.628;-1.624;2024-01-30T08:37:36;22.40;39.90
73121;DHT22;61307;49.628;-1.624;2024-01-30T08:40:04;22.30;39.90
73121;DHT22;61307;49.628;-1.624;2024-01-30T08:42:32;22.30;40.00
73121;DHT22;61307;49.628;-1.624;2024-01-30T08:45:01;22.30;40.00
73121;DHT22;61307;49.628;-1.624;2024-01-30T08:47:30;22.30;40.00
73121;DHT22;61307;49.628;-1.624;2024-01-30T08:49:58;22.30;39.90
73121;DHT22;61307;49.628;-1.624;2024-01-30T08:52:26;22.40;39.90
73121;DHT22;61307;49.628;-1.624;2024-01-30T08:54:54;22.40;39.80
73121;DHT22;61307;49.628;-1.624;2024-01-30T08:57:21;22.40;40.40
73121;DHT22;61307;49.628;-1.624;2024-01-30T08:59:48;22.40;39.70
73121;DHT22;61307;49.628;-1.624;2024-01-30T09:02:15;22.40;39.80
73121;DHT22;61307;49.628;-1.624;2024-01-30T09:04:43;22.40;39.80
73121;DHT22;61307;49.628;-1.624;2024-01-30T09:07:11;22.50;39.80
73121;DHT22;61307;49.628;-1.624;2024-01-30T09:09:39;22.50;40.40
73121;DHT22;61307;49.628;-1.624;2024-01-30T09:12:09;22.50;39.70
73121;DHT22;61307;49.628;-1.624;2024-01-30T09:14:39;22.50;39.70
73121;DHT22;61307;49.628;-1.624;2024-01-30T09:17:06;22.50;39.60
73121;DHT22;61307;49.628;-1.624;2024-01-30T09:19:33;22.50;39.60
73121;DHT22;61307;49.628;-1.624;2024-01-30T09:22:00;22.50;39.50
73121;DHT22;61307;49.628;-1.624;2024-01-30T09:24:27;22.60;39.40
73121;DHT22;61307;49.628;-1.624;2024-01-30T09:26:54;22.60;39.40
73121;DHT22;61307;49.628;-1.624;2024-01-30T09:29:23;22.60;39.30
73121;DHT22;61307;49.628;-1.624;2024-01-30T09:31:50;22.60;39.20
73121;DHT22;61307;49.628;-1.624;2024-01-30T09:34:17;22.60;39.30
73121;DHT22;61307;49.628;-1.624;2024-01-30T09:36:44;22.50;39.30
73121;DHT22;61307;49.628;-1.624;2024-01-30T09:39:11;22.50;39.40
73121;DHT22;61307;49.628;-1.624;2024-01-30T09:41:49;22.50;39.40
73121;DHT22;61307;49.628;-1.624;2024-01-30T09:44:39;22.50;39.40
73121;DHT22;61307;49.628;-1.624;2024-01-30T09:50:10;22.50;39.40
73121;DHT22;61307;49.628;-1.624;2024-01-30T09:52:38;22.50;39.40
73121;DHT22;61307;49.628;-1.624;2024-01-30T09:55:07;22.50;39.40
73121;DHT22;61307;49.628;-1.624;2024-01-30T09:57:35;22.50;39.40
73121;DHT22;61307;49.628;-1.624;2024-01-30T10:00:08;22.60;39.50
73121;DHT22;61307;49.628;-1.624;2024-01-30T10:02:36;22.60;39.30
73121;DHT22;61307;49.628;-1.624;2024-01-30T10:05:04;22.70;39.30
73121;DHT22;61307;49.628;-1.624;2024-01-30T10:07:32;22.70;39.20
73121;DHT22;61307;49.628;-1.624;2024-01-30T10:10:00;22.80;39.10
73121;DHT22;61307;49.628;-1.624;2024-01-30T10:12:29;22.80;39.10
73121;DHT22;61307;49.628;-1.624;2024-01-30T10:14:57;22.80;38.80
73121;DHT22;61307;49.628;-1.624;2024-01-30T10:17:26;22.80;38.70
73121;DHT22;61307;49.628;-1.624;2024-01-30T10:19:54;22.80;38.70
73121;DHT22;61307;49.628;-1.624;2024-01-30T10:22:22;22.90;38.90
73121;DHT22;61307;49.628;-1.624;2024-01-30T10:24:49;22.90;38.80
73121;DHT22;61307;49.628;-1.624;2024-01-30T10:27:16;22.80;38.70
73121;DHT22;61307;49.628;-1.624;2024-01-30T10:29:43;22.90;38.80
73121;DHT22;61307;49.628;-1.624;2024-01-30T10:32:09;22.90;38.70
73121;DHT22;61307;49.628;-1.624;2024-01-30T10:34:38;22.90;38.50
73121;DHT22;61307;49.628;-1.624;2024-01-30T10:37:08;22.90;38.40
73121;DHT22;61307;49.628;-1.624;2024-01-30T10:39:38;22.90;38.40
73121;DHT22;61307;49.628;-1.624;2024-01-30T10:42:07;22.90;38.50
73121;DHT22;61307;49.628;-1.624;2024-01-30T10:44:39;22.80;38.50
73121;DHT22;61307;49.628;-1.624;2024-01-30T10:47:12;22.80;38.60
73121;DHT22;61307;49.628;-1.624;2024-01-30T10:49:41;22.80;38.60
73121;DHT22;61307;49.628;-1.624;2024-01-30T10:52:10;22.70;38.60
73121;DHT22;61307;49.628;-1.624;2024-01-30T10:54:40;22.70;38.60
73121;DHT22;61307;49.628;-1.624;2024-01-30T10:57:10;22.70;38.60
73121;DHT22;61307;49.628;-1.624;2024-01-30T10:59:38;22.70;38.70
73121;DHT22;61307;49.628;-1.624;2024-01-30T11:02:06;22.70;38.60
73121;DHT22;61307;49.628;-1.624;2024-01-30T11:04:36;22.70;38.60
73121;DHT22;61307;49.628;-1.624;2024-01-30T11:07:15;22.70;38.50
73121;DHT22;61307;49.628;-1.624;2024-01-30T11:09:48;22.80;38.30
73121;DHT22;61307;49.628;-1.624;2024-01-30T11:12:16;22.80;38.20
73121;DHT22;61307;49.628;-1.624;2024-01-30T11:14:43;22.80;38.00
73121;DHT22;61307;49.628;-1.624;2024-01-30T11:17:10;22.80;38.10
73121;DHT22;61307;49.628;-1.624;2024-01-30T11:19:38;22.80;38.00
73121;DHT22;61307;49.628;-1.624;2024-01-30T11:22:08;22.90;38.10
73121;DHT22;61307;49.628;-1.624;2024-01-30T11:24:40;22.90;38.00
73121;DHT22;61307;49.628;-1.624;2024-01-30T11:27:08;22.90;37.90
73121;DHT22;61307;49.628;-1.624;2024-01-30T11:29:36;22.80;37.80
73121;DHT22;61307;49.628;-1.624;2024-01-30T11:32:03;22.90;37.70
73121;DHT22;61307;49.628;-1.624;2024-01-30T11:34:32;22.90;37.60
73121;DHT22;61307;49.628;-1.624;2024-01-30T11:37:03;22.90;37.50
73121;DHT22;61307;49.628;-1.624;2024-01-30T11:39:36;22.90;37.50
73121;DHT22;61307;49.628;-1.624;2024-01-30T11:42:07;22.90;37.50
73121;DHT22;61307;49.628;-1.624;2024-01-30T11:44:35;22.90;37.50
73121;DHT22;61307;49.628;-1.624;2024-01-30T11:47:03;22.90;37.50
73121;DHT22;61307;49.628;-1.624;2024-01-30T11:49:30;22.80;37.50
73121;DHT22;61307;49.628;-1.624;2024-01-30T11:51:57;22.80;37.50
73121;DHT22;61307;49.628;-1.624;2024-01-30T11:54:24;22.80;37.50
73121;DHT22;61307;49.628;-1.624;2024-01-30T11:56:51;22.80;37.50
73121;DHT22;61307;49.628;-1.624;2024-01-30T11:59:19;22.70;37.50
73121;DHT22;61307;49.628;-1.624;2024-01-30T12:01:46;22.80;37.60
73121;DHT22;61307;49.628;-1.624;2024-01-30T12:04:13;22.70;37.40
73121;DHT22;61307;49.628;-1.624;2024-01-30T12:06:40;22.70;37.40
73121;DHT22;61307;49.628;-1.624;2024-01-30T12:09:09;22.80;37.50
73121;DHT22;61307;49.628;-1.624;2024-01-30T12:11:48;22.80;37.30
73121;DHT22;61307;49.628;-1.624;2024-01-30T12:14:16;22.90;37.50
73121;DHT22;61307;49.628;-1.624;2024-01-30T12:16:49;22.90;37.20
73121;DHT22;61307;49.628;-1.624;2024-01-30T12:19:23;22.90;37.00
73121;DHT22;61307;49.628;-1.624;2024-01-30T12:21:57;23.00;37.00
73121;DHT22;61307;49.628;-1.624;2024-01-30T12:24:25;23.00;36.90
73121;DHT22;61307;49.628;-1.624;2024-01-30T12:26:52;23.10;36.90
73121;DHT22;61307;49.628;-1.624;2024-01-30T12:29:20;23.10;36.80
73121;DHT22;61307;49.628;-1.624;2024-01-30T12:31:48;23.10;37.50
73121;DHT22;61307;49.628;-1.624;2024-01-30T12:34:19;23.10;36.70
73121;DHT22;61307;49.628;-1.624;2024-01-30T12:36:47;23.10;36.70
73121;DHT22;61307;49.628;-1.624;2024-01-30T12:39:14;23.10;36.60
73121;DHT22;61307;49.628;-1.624;2024-01-30T12:41:41;23.10;36.60
73121;DHT22;61307;49.628;-1.624;2024-01-30T12:44:08;23.10;36.60
73121;DHT22;61307;49.628;-1.624;2024-01-30T12:46:35;23.10;36.70
73121;DHT22;61307;49.628;-1.624;2024-01-30T12:49:04;23.00;36.80
73121;DHT22;61307;49.628;-1.624;2024-01-30T12:51:34;23.00;36.80
73121;DHT22;61307;49.628;-1.624;2024-01-30T12:54:05;22.90;36.80
73121;DHT22;61307;49.628;-1.624;2024-01-30T12:56:32;22.90;36.90
73121;DHT22;61307;49.628;-1.624;2024-01-30T12:58:59;22.90;37.00
73121;DHT22;61307;49.628;-1.624;2024-01-30T13:01:26;22.90;37.00
73121;DHT22;61307;49.628;-1.624;2024-01-30T13:03:53;22.90;37.20
73121;DHT22;61307;49.628;-1.624;2024-01-30T13:06:23;22.90;37.10
73121;DHT22;61307;49.628;-1.624;2024-01-30T13:08:50;22.90;37.20
73121;DHT22;61307;49.628;-1.624;2024-01-30T13:11:17;22.90;37.20
73121;DHT22;61307;49.628;-1.624;2024-01-30T13:13:44;22.90;37.20
73121;DHT22;61307;49.628;-1.624;2024-01-30T13:16:11;22.90;37.20
73121;DHT22;61307;49.628;-1.624;2024-01-30T13:18:38;22.90;37.30
73121;DHT22;61307;49.628;-1.624;2024-01-30T13:21:05;22.90;37.20
73121;DHT22;61307;49.628;-1.624;2024-01-30T13:23:33;23.00;37.20
73121;DHT22;61307;49.628;-1.624;2024-01-30T13:26:00;23.00;36.90
73121;DHT22;61307;49.628;-1.624;2024-01-30T13:28:28;23.20;36.80
73121;DHT22;61307;49.628;-1.624;2024-01-30T13:30:54;23.20;36.60
73121;DHT22;61307;49.628;-1.624;2024-01-30T13:33:21;23.30;36.50
73121;DHT22;61307;49.628;-1.624;2024-01-30T13:35:48;23.20;36.30
73121;DHT22;61307;49.628;-1.624;2024-01-30T13:38:16;23.30;36.30
73121;DHT22;61307;49.628;-1.624;2024-01-30T13:40:44;23.40;36.30
73121;DHT22;61307;49.628;-1.624;2024-01-30T13:43:11;23.40;36.20
73121;DHT22;61307;49.628;-1.624;2024-01-30T13:45:39;23.40;36.10
73121;DHT22;61307;49.628;-1.624;2024-01-30T13:48:07;23.40;36.00
73121;DHT22;61307;49.628;-1.624;2024-01-30T13:50:34;23.40;35.90
73121;DHT22;61307;49.628;-1.624;2024-01-30T13:53:02;23.40;35.90
73121;DHT22;61307;49.628;-1.624;2024-01-30T13:55:29;23.30;36.00
73121;DHT22;61307;49.628;-1.624;2024-01-30T13:57:58;23.30;36.00
73121;DHT22;61307;49.628;-1.624;2024-01-30T14:00:25;23.30;35.90
73121;DHT22;61307;49.628;-1.624;2024-01-30T14:02:52;23.30;36.10
73121;DHT22;61307;49.628;-1.624;2024-01-30T14:05:20;23.30;35.90
73121;DHT22;61307;49.628;-1.624;2024-01-30T14:07:48;23.20;35.80
73121;DHT22;61307;49.628;-1.624;2024-01-30T14:10:15;23.20;35.70
73121;DHT22;61307;49.628;-1.624;2024-01-30T14:12:42;23.20;35.70
73121;DHT22;61307;49.628;-1.624;2024-01-30T14:15:13;23.20;35.70
73121;DHT22;61307;49.628;-1.624;2024-01-30T14:17:44;23.20;35.70
73121;DHT22;61307;49.628;-1.624;2024-01-30T14:20:14;23.20;35.70
73121;DHT22;61307;49.628;-1.624;2024-01-30T14:22:42;23.20;35.60
73121;DHT22;61307;49.628;-1.624;2024-01-30T14:25:09;23.20;35.60
73121;DHT22;61307;49.628;-1.624;2024-01-30T14:27:36;23.10;35.60
73121;DHT22;61307;49.628;-1.624;2024-01-30T14:30:04;23.20;35.80
73121;DHT22;61307;49.628;-1.624;2024-01-30T14:32:32;23.20;35.80
73121;DHT22;61307;49.628;-1.624;2024-01-30T14:35:00;23.30;35.80
73121;DHT22;61307;49.628;-1.624;2024-01-30T14:37:27;23.20;35.70
73121;DHT22;61307;49.628;-1.624;2024-01-30T14:39:55;23.30;35.70
73121;DHT22;61307;49.628;-1.624;2024-01-30T14:42:22;23.30;35.50
73121;DHT22;61307;49.628;-1.624;2024-01-30T14:44:49;23.40;36.20
73121;DHT22;61307;49.628;-1.624;2024-01-30T14:47:17;23.40;35.60
73121;DHT22;61307;49.628;-1.624;2024-01-30T14:49:45;23.40;35.40
73121;DHT22;61307;49.628;-1.624;2024-01-30T14:52:12;23.40;35.30
73121;DHT22;61307;49.628;-1.624;2024-01-30T14:54:40;23.50;35.40
73121;DHT22;61307;49.628;-1.624;2024-01-30T14:57:07;23.50;35.10
73121;DHT22;61307;49.628;-1.624;2024-01-30T14:59:34;23.50;35.20
73121;DHT22;61307;49.628;-1.624;2024-01-30T15:02:01;23.50;35.10
73121;DHT22;61307;49.628;-1.624;2024-01-30T15:04:28;23.40;35.00
73121;DHT22;61307;49.628;-1.624;2024-01-30T15:06:57;23.40;35.00
73121;DHT22;61307;49.628;-1.624;2024-01-30T15:09:24;23.30;35.00
73121;DHT22;61307;49.628;-1.624;2024-01-30T15:11:52;23.30;35.10
73121;DHT22;61307;49.628;-1.624;2024-01-30T15:14:19;23.20;35.00
73121;DHT22;61307;49.628;-1.624;2024-01-30T15:16:45;23.20;35.10
73121;DHT22;61307;49.628;-1.624;2024-01-30T15:19:12;23.20;35.10
73121;DHT22;61307;49.628;-1.624;2024-01-30T15:21:39;23.20;35.10